Terminal Aerodrome Forecast
Issued by NWS

Home | Current Version | Previous Version | Text Only | Print | Product List | Glossary Off
Versions: 1 2 3 4 5 6 7 8 9 10 11 12 13 14 15 16 17 18 19 20 21 22 23 24 25

000
FTUS43 KLOT 190521
TAFGYY
TAF
KGYY 190521Z 1906/2006 32008KT P6SM SCT040 BKN070
     FM190900 31005KT P6SM FEW040 SCT150
     FM191800 02008KT P6SM FEW050
     FM200100 13003KT P6SM SKC=

USA.gov is the U.S. government's official web portal to all federal, state and local government web resources and services.